sensor_id;sensor_type;location;lat;lon;timestamp;pressure;altitude;pressure_sealevel;temperature;humidity
42415;BME280;28058;46.344;17.786;2023-02-18T00:01:29;118336.50;;;-144.97;90.76
42415;BME280;28058;46.344;17.786;2023-02-18T00:03:56;118336.50;;;-144.97;90.83
42415;BME280;28058;46.344;17.786;2023-02-18T00:06:29;118336.50;;;-144.97;91.18
42415;BME280;28058;46.344;17.786;2023-02-18T00:08:56;118336.50;;;-144.97;91.92
42415;BME280;28058;46.344;17.786;2023-02-18T00:11:27;118336.50;;;-144.97;92.29
42415;BME280;28058;46.344;17.786;2023-02-18T00:13:55;118336.50;;;-144.97;92.50
42415;BME280;28058;46.344;17.786;2023-02-18T00:16:23;118336.50;;;-144.97;93.15
42415;BME280;28058;46.344;17.786;2023-02-18T00:18:50;118336.50;;;-144.97;93.51
42415;BME280;28058;46.344;17.786;2023-02-18T00:21:20;118336.50;;;-144.97;93.68
42415;BME280;28058;46.344;17.786;2023-02-18T00:23:46;118336.50;;;-144.97;94.13
42415;BME280;28058;46.344;17.786;2023-02-18T00:26:14;118336.50;;;-144.97;94.67
42415;BME280;28058;46.344;17.786;2023-02-18T00:28:41;118336.50;;;-144.97;95.08
42415;BME280;28058;46.344;17.786;2023-02-18T00:31:08;118336.50;;;-144.97;95.81
42415;BME280;28058;46.344;17.786;2023-02-18T00:33:36;118336.50;;;-144.97;96.20
42415;BME280;28058;46.344;17.786;2023-02-18T00:36:03;118336.50;;;-144.97;96.47
42415;BME280;28058;46.344;17.786;2023-02-18T00:38:31;118336.50;;;-144.97;96.84
42415;BME280;28058;46.344;17.786;2023-02-18T00:40:58;118336.50;;;-144.97;96.94
42415;BME280;28058;46.344;17.786;2023-02-18T00:43:25;118336.50;;;-144.97;97.42
42415;BME280;28058;46.344;17.786;2023-02-18T00:45:53;118336.50;;;-144.97;97.41
42415;BME280;28058;46.344;17.786;2023-02-18T00:48:20;118336.50;;;-144.97;98.17
42415;BME280;28058;46.344;17.786;2023-02-18T00:50:46;118336.50;;;-144.97;98.38
42415;BME280;28058;46.344;17.786;2023-02-18T00:53:13;118336.50;;;-144.97;98.85
42415;BME280;28058;46.344;17.786;2023-02-18T00:55:40;118336.50;;;-144.97;99.32
42415;BME280;28058;46.344;17.786;2023-02-18T00:58:07;118336.50;;;-144.97;99.55
42415;BME280;28058;46.344;17.786;2023-02-18T01:00:34;118336.50;;;-144.97;100.00
42415;BME280;28058;46.344;17.786;2023-02-18T01:03:01;118336.50;;;-144.97;100.00
42415;BME280;28058;46.344;17.786;2023-02-18T01:05:27;118336.50;;;-144.97;100.00
42415;BME280;28058;46.344;17.786;2023-02-18T01:07:54;118336.50;;;-144.97;100.00
42415;BME280;28058;46.344;17.786;2023-02-18T01:10:21;118336.50;;;-144.97;100.00
42415;BME280;28058;46.344;17.786;2023-02-18T01:12:47;118336.50;;;-144.97;100.00
42415;BME280;28058;46.344;17.786;2023-02-18T01:15:15;118336.50;;;-144.97;100.00
42415;BME280;28058;46.344;17.786;2023-02-18T01:17:42;118336.50;;;-144.97;100.00
42415;BME280;28058;46.344;17.786;2023-02-18T01:20:09;118336.50;;;-144.97;100.00
42415;BME280;28058;46.344;17.786;2023-02-18T01:22:36;118336.50;;;-144.97;100.00
42415;BME280;28058;46.344;17.786;2023-02-18T01:25:03;118336.50;;;-144.97;100.00
42415;BME280;28058;46.344;17.786;2023-02-18T01:27:30;118336.50;;;-144.97;100.00
42415;BME280;28058;46.344;17.786;2023-02-18T01:29:56;118336.50;;;-144.97;100.00
42415;BME280;28058;46.344;17.786;2023-02-18T01:32:23;118336.50;;;-144.97;100.00
42415;BME280;28058;46.344;17.786;2023-02-18T01:34:50;118336.50;;;-144.97;100.00
42415;BME280;28058;46.344;17.786;2023-02-18T01:37:16;118336.50;;;-144.97;100.00
42415;BME280;28058;46.344;17.786;2023-02-18T01:39:43;118336.50;;;-144.97;100.00
42415;BME280;28058;46.344;17.786;2023-02-18T01:42:20;118336.50;;;-144.97;100.00
42415;BME280;28058;46.344;17.786;2023-02-18T01:44:47;118336.50;;;-144.97;100.00
42415;BME280;28058;46.344;17.786;2023-02-18T01:47:14;118336.50;;;-144.97;100.00
42415;BME280;28058;46.344;17.786;2023-02-18T01:49:41;118336.50;;;-144.97;100.00
42415;BME280;28058;46.344;17.786;2023-02-18T01:52:14;118336.50;;;-144.97;100.00
42415;BME280;28058;46.344;17.786;2023-02-18T01:54:49;118336.50;;;-144.97;100.00
42415;BME280;28058;46.344;17.786;2023-02-18T01:57:18;118336.50;;;-144.97;100.00
42415;BME280;28058;46.344;17.786;2023-02-18T02:02:13;118336.50;;;-144.97;100.00
42415;BME280;28058;46.344;17.786;2023-02-18T02:04:41;118336.50;;;-144.97;100.00
42415;BME280;28058;46.344;17.786;2023-02-18T02:07:07;118336.50;;;-144.97;100.00
42415;BME280;28058;46.344;17.786;2023-02-18T02:09:34;118336.50;;;-144.97;100.00
42415;BME280;28058;46.344;17.786;2023-02-18T02:17:07;118336.50;;;-144.97;100.00
42415;BME280;28058;46.344;17.786;2023-02-18T02:19:56;118336.50;;;-144.97;100.00
42415;BME280;28058;46.344;17.786;2023-02-18T02:24:57;118336.50;;;-144.97;100.00
42415;BME280;28058;46.344;17.786;2023-02-18T02:27:34;118336.50;;;-144.97;100.00
42415;BME280;28058;46.344;17.786;2023-02-18T02:48:34;118336.50;;;-144.97;100.00
42415;BME280;28058;46.344;17.786;2023-02-18T02:51:08;118336.50;;;-144.97;100.00
42415;BME280;28058;46.344;17.786;2023-02-18T02:53:38;118336.50;;;-144.97;100.00
42415;BME280;28058;46.344;17.786;2023-02-18T02:56:05;118336.50;;;-144.97;100.00
42415;BME280;28058;46.344;17.786;2023-02-18T02:58:33;118336.50;;;-144.97;100.00
42415;BME280;28058;46.344;17.786;2023-02-18T03:06:30;118336.50;;;-144.97;100.00
42415;BME280;28058;46.344;17.786;2023-02-18T03:11:52;118336.50;;;-144.97;100.00
42415;BME280;28058;46.344;17.786;2023-02-18T03:17:14;118336.50;;;-144.97;100.00
42415;BME280;28058;46.344;17.786;2023-02-18T03:19:52;118336.50;;;-144.97;100.00
42415;BME280;28058;46.344;17.786;2023-02-18T03:22:21;118336.50;;;-144.97;100.00
42415;BME280;28058;46.344;17.786;2023-02-18T03:24:49;118336.50;;;-144.97;100.00
42415;BME280;28058;46.344;17.786;2023-02-18T03:27:21;118336.50;;;-144.97;100.00
42415;BME280;28058;46.344;17.786;2023-02-18T03:29:53;118336.50;;;-144.97;100.00
42415;BME280;28058;46.344;17.786;2023-02-18T03:32:21;118336.50;;;-144.97;100.00
42415;BME280;28058;46.344;17.786;2023-02-18T03:34:51;118336.50;;;-144.97;100.00
42415;BME280;28058;46.344;17.786;2023-02-18T03:37:20;118336.50;;;-144.97;100.00
42415;BME280;28058;46.344;17.786;2023-02-18T03:39:49;118336.50;;;-144.97;100.00
42415;BME280;28058;46.344;17.786;2023-02-18T03:42:18;118336.50;;;-144.97;100.00
42415;BME280;28058;46.344;17.786;2023-02-18T03:44:44;118336.50;;;-144.97;100.00
42415;BME280;28058;46.344;17.786;2023-02-18T03:47:11;118336.50;;;-144.97;100.00
42415;BME280;28058;46.344;17.786;2023-02-18T03:49:38;118336.50;;;-144.97;100.00
42415;BME280;28058;46.344;17.786;2023-02-18T03:52:05;118336.50;;;-144.97;100.00
42415;BME280;28058;46.344;17.786;2023-02-18T03:54:31;118336.50;;;-144.97;100.00
42415;BME280;28058;46.344;17.786;2023-02-18T03:56:58;118336.50;;;-144.97;100.00
42415;BME280;28058;46.344;17.786;2023-02-18T03:59:24;118336.50;;;-144.97;100.00
42415;BME280;28058;46.344;17.786;2023-02-18T04:01:51;118336.50;;;-144.97;100.00
42415;BME280;28058;46.344;17.786;2023-02-18T04:04:18;118336.50;;;-144.97;100.00
42415;BME280;28058;46.344;17.786;2023-02-18T04:06:45;118336.50;;;-144.97;100.00
42415;BME280;28058;46.344;17.786;2023-02-18T04:09:11;118336.50;;;-144.97;100.00
42415;BME280;28058;46.344;17.786;2023-02-18T04:11:38;118336.50;;;-144.97;100.00
42415;BME280;28058;46.344;17.786;2023-02-18T04:14:05;118336.50;;;-144.97;100.00
42415;BME280;28058;46.344;17.786;2023-02-18T04:16:32;118336.50;;;-144.97;100.00
42415;BME280;28058;46.344;17.786;2023-02-18T04:18:59;118336.50;;;-144.97;100.00
42415;BME280;28058;46.344;17.786;2023-02-18T04:21:26;118336.50;;;-144.97;100.00
42415;BME280;28058;46.344;17.786;2023-02-18T04:23:52;118336.50;;;-144.97;100.00
42415;BME280;28058;46.344;17.786;2023-02-18T04:26:19;118336.50;;;-144.97;100.00
42415;BME280;28058;46.344;17.786;2023-02-18T04:28:46;118336.50;;;-144.97;100.00
42415;BME280;28058;46.344;17.786;2023-02-18T04:31:13;118336.50;;;-144.97;100.00
42415;BME280;28058;46.344;17.786;2023-02-18T04:33:40;118336.50;;;-144.97;100.00
42415;BME280;28058;46.344;17.786;2023-02-18T04:36:07;118336.50;;;-144.97;100.00
42415;BME280;28058;46.344;17.786;2023-02-18T04:38:35;118336.50;;;-144.97;100.00
42415;BME280;28058;46.344;17.786;2023-02-18T04:41:01;118336.50;;;-144.97;100.00
42415;BME280;28058;46.344;17.786;2023-02-18T04:43:28;118336.50;;;-144.97;100.00
42415;BME280;28058;46.344;17.786;2023-02-18T04:45:55;118336.50;;;-144.97;100.00
42415;BME280;28058;46.344;17.786;2023-02-18T04:48:21;118336.50;;;-144.97;100.00
42415;BME280;28058;46.344;17.786;2023-02-18T04:50:48;118336.50;;;-144.97;100.00
42415;BME280;28058;46.344;17.786;2023-02-18T04:53:15;118336.50;;;-144.97;100.00
42415;BME280;28058;46.344;17.786;2023-02-18T04:55:41;118336.50;;;-144.97;100.00
42415;BME280;28058;46.344;17.786;2023-02-18T04:58:08;118336.50;;;-144.97;100.00
42415;BME280;28058;46.344;17.786;2023-02-18T05:00:36;118336.50;;;-144.97;100.00
42415;BME280;28058;46.344;17.786;2023-02-18T05:03:02;118336.50;;;-144.97;100.00
42415;BME280;28058;46.344;17.786;2023-02-18T05:05:29;118336.50;;;-144.97;100.00
42415;BME280;28058;46.344;17.786;2023-02-18T05:07:55;118336.50;;;-144.97;100.00
42415;BME280;28058;46.344;17.786;2023-02-18T05:10:22;118336.50;;;-144.97;100.00
42415;BME280;28058;46.344;17.786;2023-02-18T05:12:49;118336.50;;;-144.97;100.00
42415;BME280;28058;46.344;17.786;2023-02-18T05:15:15;118336.50;;;-144.97;100.00
42415;BME280;28058;46.344;17.786;2023-02-18T05:17:42;118336.50;;;-144.97;100.00
42415;BME280;28058;46.344;17.786;2023-02-18T05:20:09;118336.50;;;-144.97;100.00
42415;BME280;28058;46.344;17.786;2023-02-18T05:22:36;118336.50;;;-144.97;100.00
42415;BME280;28058;46.344;17.786;2023-02-18T05:25:03;118336.50;;;-144.97;100.00
42415;BME280;28058;46.344;17.786;2023-02-18T05:27:30;118336.50;;;-144.97;100.00
42415;BME280;28058;46.344;17.786;2023-02-18T05:29:57;118336.50;;;-144.97;100.00
42415;BME280;28058;46.344;17.786;2023-02-18T05:32:23;118336.50;;;-144.97;100.00
42415;BME280;28058;46.344;17.786;2023-02-18T05:34:50;118336.50;;;-144.97;100.00
42415;BME280;28058;46.344;17.786;2023-02-18T05:37:17;118336.50;;;-144.97;100.00
42415;BME280;28058;46.344;17.786;2023-02-18T05:39:44;118336.50;;;-144.97;100.00
42415;BME280;28058;46.344;17.786;2023-02-18T05:42:10;118336.50;;;-144.97;100.00
42415;BME280;28058;46.344;17.786;2023-02-18T05:44:37;118336.50;;;-144.97;100.00
42415;BME280;28058;46.344;17.786;2023-02-18T05:47:07;118336.50;;;-144.97;100.00
42415;BME280;28058;46.344;17.786;2023-02-18T05:49:37;118336.50;;;-144.97;100.00
42415;BME280;28058;46.344;17.786;2023-02-18T05:52:05;118336.50;;;-144.97;100.00
42415;BME280;28058;46.344;17.786;2023-02-18T05:54:32;118336.50;;;-144.97;100.00
42415;BME280;28058;46.344;17.786;2023-02-18T05:56:59;118336.50;;;-144.97;100.00
42415;BME280;28058;46.344;17.786;2023-02-18T05:59:27;118336.50;;;-144.97;100.00
42415;BME280;28058;46.344;17.786;2023-02-18T06:01:53;118336.50;;;-144.97;100.00
42415;BME280;28058;46.344;17.786;2023-02-18T06:04:20;118336.50;;;-144.97;100.00
42415;BME280;28058;46.344;17.786;2023-02-18T06:06:47;118336.50;;;-144.97;100.00
42415;BME280;28058;46.344;17.786;2023-02-18T06:09:14;118336.50;;;-144.97;100.00
42415;BME280;28058;46.344;17.786;2023-02-18T06:11:41;118336.50;;;-144.97;100.00
42415;BME280;28058;46.344;17.786;2023-02-18T06:14:07;118336.50;;;-144.97;100.00
42415;BME280;28058;46.344;17.786;2023-02-18T06:16:34;118336.50;;;-144.97;100.00
42415;BME280;28058;46.344;17.786;2023-02-18T06:19:01;118336.50;;;-144.97;100.00
42415;BME280;28058;46.344;17.786;2023-02-18T06:21:28;118336.50;;;-144.97;100.00
42415;BME280;28058;46.344;17.786;2023-02-18T06:23:54;118336.50;;;-144.97;100.00
42415;BME280;28058;46.344;17.786;2023-02-18T06:26:21;118336.50;;;-144.97;100.00
42415;BME280;28058;46.344;17.786;2023-02-18T06:28:48;118336.50;;;-144.97;100.00
42415;BME280;28058;46.344;17.786;2023-02-18T06:31:15;118336.50;;;-144.97;100.00
42415;BME280;28058;46.344;17.786;2023-02-18T06:33:41;118336.50;;;-144.97;100.00
42415;BME280;28058;46.344;17.786;2023-02-18T06:36:10;118336.50;;;-144.97;100.00
42415;BME280;28058;46.344;17.786;2023-02-18T06:38:38;118336.50;;;-144.97;100.00
42415;BME280;28058;46.344;17.786;2023-02-18T06:41:05;118336.50;;;-144.97;100.00
42415;BME280;28058;46.344;17.786;2023-02-18T06:43:31;118336.50;;;-144.97;100.00
42415;BME280;28058;46.344;17.786;2023-02-18T06:45:58;118336.50;;;-144.97;100.00
42415;BME280;28058;46.344;17.786;2023-02-18T06:48:25;118336.50;;;-144.97;100.00
42415;BME280;28058;46.344;17.786;2023-02-18T06:50:52;118336.50;;;-144.97;100.00
42415;BME280;28058;46.344;17.786;2023-02-18T06:53:18;118336.50;;;-144.97;100.00
42415;BME280;28058;46.344;17.786;2023-02-18T06:55:45;118336.50;;;-144.97;100.00
42415;BME280;28058;46.344;17.786;2023-02-18T06:58:12;118336.50;;;-144.97;100.00
42415;BME280;28058;46.344;17.786;2023-02-18T07:00:39;118336.50;;;-144.97;100.00
42415;BME280;28058;46.344;17.786;2023-02-18T07:03:06;118336.50;;;-144.97;100.00
42415;BME280;28058;46.344;17.786;2023-02-18T07:05:33;118336.50;;;-144.97;100.00
42415;BME280;28058;46.344;17.786;2023-02-18T07:08:00;118336.50;;;-144.97;100.00
42415;BME280;28058;46.344;17.786;2023-02-18T07:10:27;118336.50;;;-144.97;100.00
42415;BME280;28058;46.344;17.786;2023-02-18T07:12:53;118336.50;;;-144.97;100.00
42415;BME280;28058;46.344;17.786;2023-02-18T07:15:20;118336.50;;;-144.97;100.00
42415;BME280;28058;46.344;17.786;2023-02-18T07:17:50;118336.50;;;-144.97;100.00
42415;BME280;28058;46.344;17.786;2023-02-18T07:20:17;118336.50;;;-144.97;100.00
42415;BME280;28058;46.344;17.786;2023-02-18T07:22:44;118336.50;;;-144.97;100.00
42415;BME280;28058;46.344;17.786;2023-02-18T07:25:11;118336.50;;;-144.97;100.00
42415;BME280;28058;46.344;17.786;2023-02-18T07:27:38;118336.50;;;-144.97;100.00
42415;BME280;28058;46.344;17.786;2023-02-18T07:30:05;118336.50;;;-144.97;100.00
42415;BME280;28058;46.344;17.786;2023-02-18T07:32:32;118336.50;;;-144.97;100.00
42415;BME280;28058;46.344;17.786;2023-02-18T07:34:59;118336.50;;;-144.97;100.00
42415;BME280;28058;46.344;17.786;2023-02-18T07:37:26;118336.50;;;-144.97;100.00
42415;BME280;28058;46.344;17.786;2023-02-18T07:39:52;118336.50;;;-144.97;100.00
42415;BME280;28058;46.344;17.786;2023-02-18T07:42:19;118336.50;;;-144.97;100.00
42415;BME280;28058;46.344;17.786;2023-02-18T07:44:46;118336.50;;;-144.97;100.00
42415;BME280;28058;46.344;17.786;2023-02-18T07:47:13;118336.50;;;-144.97;100.00
42415;BME280;28058;46.344;17.786;2023-02-18T07:49:40;118336.50;;;-144.97;100.00
42415;BME280;28058;46.344;17.786;2023-02-18T07:52:07;118336.50;;;-144.97;100.00
42415;BME280;28058;46.344;17.786;2023-02-18T07:54:33;118336.50;;;-144.97;100.00
42415;BME280;28058;46.344;17.786;2023-02-18T07:57:00;118336.50;;;-144.97;100.00
42415;BME280;28058;46.344;17.786;2023-02-18T07:59:27;118336.50;;;-144.97;100.00
42415;BME280;28058;46.344;17.786;2023-02-18T08:01:53;118336.50;;;-144.97;100.00
42415;BME280;28058;46.344;17.786;2023-02-18T08:04:20;118336.50;;;-144.97;100.00
42415;BME280;28058;46.344;17.786;2023-02-18T08:06:47;118336.50;;;-144.97;100.00
42415;BME280;28058;46.344;17.786;2023-02-18T08:09:15;118336.50;;;-144.97;100.00
42415;BME280;28058;46.344;17.786;2023-02-18T08:11:42;118336.50;;;-144.97;100.00
42415;BME280;28058;46.344;17.786;2023-02-18T08:14:09;118336.50;;;-144.97;100.00
42415;BME280;28058;46.344;17.786;2023-02-18T08:16:36;118336.50;;;-144.97;100.00
42415;BME280;28058;46.344;17.786;2023-02-18T08:19:03;118336.50;;;-144.97;100.00
42415;BME280;28058;46.344;17.786;2023-02-18T08:21:30;118336.50;;;-144.97;100.00
42415;BME280;28058;46.344;17.786;2023-02-18T08:23:57;118336.50;;;-144.97;100.00
42415;BME280;28058;46.344;17.786;2023-02-18T08:26:24;118336.50;;;-144.97;100.00
42415;BME280;28058;46.344;17.786;2023-02-18T08:28:51;118336.50;;;-144.97;100.00
42415;BME280;28058;46.344;17.786;2023-02-18T08:31:19;118336.50;;;-144.97;100.00
42415;BME280;28058;46.344;17.786;2023-02-18T08:33:47;118336.50;;;-144.97;100.00
42415;BME280;28058;46.344;17.786;2023-02-18T08:36:14;118336.50;;;-144.97;100.00
42415;BME280;28058;46.344;17.786;2023-02-18T08:38:41;118336.50;;;-144.97;100.00
42415;BME280;28058;46.344;17.786;2023-02-18T08:41:08;118336.50;;;-144.97;100.00
42415;BME280;28058;46.344;17.786;2023-02-18T08:43:35;118336.50;;;-144.97;100.00
42415;BME280;28058;46.344;17.786;2023-02-18T08:46:02;118336.50;;;-144.97;100.00
42415;BME280;28058;46.344;17.786;2023-02-18T08:48:30;118336.50;;;-144.97;100.00
42415;BME280;28058;46.344;17.786;2023-02-18T08:50:56;118336.50;;;-144.97;100.00
42415;BME280;28058;46.344;17.786;2023-02-18T08:53:23;118336.50;;;-144.97;100.00
42415;BME280;28058;46.344;17.786;2023-02-18T08:55:50;118336.50;;;-144.97;100.00
42415;BME280;28058;46.344;17.786;2023-02-18T08:58:17;118336.50;;;-144.97;100.00
42415;BME280;28058;46.344;17.786;2023-02-18T09:00:44;118336.50;;;-144.97;100.00
42415;BME280;28058;46.344;17.786;2023-02-18T09:03:12;118336.50;;;-144.97;100.00
42415;BME280;28058;46.344;17.786;2023-02-18T09:05:39;118336.50;;;-144.97;100.00
42415;BME280;28058;46.344;17.786;2023-02-18T09:08:06;118336.50;;;-144.97;100.00
42415;BME280;28058;46.344;17.786;2023-02-18T09:10:33;118336.50;;;-144.97;100.00
42415;BME280;28058;46.344;17.786;2023-02-18T09:13:00;118336.50;;;-144.97;100.00
42415;BME280;28058;46.344;17.786;2023-02-18T09:15:26;118336.50;;;-144.97;100.00
42415;BME280;28058;46.344;17.786;2023-02-18T09:17:53;118336.50;;;-144.97;100.00
42415;BME280;28058;46.344;17.786;2023-02-18T09:20:20;118336.50;;;-144.97;100.00
42415;BME280;28058;46.344;17.786;2023-02-18T09:22:46;118336.50;;;-144.97;99.08
42415;BME280;28058;46.344;17.786;2023-02-18T09:25:13;118336.50;;;-144.97;98.15
42415;BME280;28058;46.344;17.786;2023-02-18T09:27:40;118336.50;;;-144.97;97.24
42415;BME280;28058;46.344;17.786;2023-02-18T09:30:06;118336.50;;;-144.97;96.54
42415;BME280;28058;46.344;17.786;2023-02-18T09:32:33;118336.50;;;-144.97;96.31
42415;BME280;28058;46.344;17.786;2023-02-18T09:35:01;118336.50;;;-144.97;96.01
42415;BME280;28058;46.344;17.786;2023-02-18T09:37:28;118336.50;;;-144.97;95.33
42415;BME280;28058;46.344;17.786;2023-02-18T09:39:55;118336.50;;;-144.97;95.35
42415;BME280;28058;46.344;17.786;2023-02-18T09:42:23;118336.50;;;-144.97;95.39
42415;BME280;28058;46.344;17.786;2023-02-18T09:44:53;118336.50;;;-144.97;95.15
42415;BME280;28058;46.344;17.786;2023-02-18T09:47:32;118336.50;;;-144.97;95.53
42415;BME280;28058;46.344;17.786;2023-02-18T09:50:04;118336.50;;;-144.97;95.07
42415;BME280;28058;46.344;17.786;2023-02-18T09:52:33;118336.50;;;-144.97;94.66
42415;BME280;28058;46.344;17.786;2023-02-18T09:57:44;118336.50;;;-144.97;94.27
42415;BME280;28058;46.344;17.786;2023-02-18T10:00:13;118336.50;;;-144.97;92.61
42415;BME280;28058;46.344;17.786;2023-02-18T10:02:42;118336.50;;;-144.97;92.39
42415;BME280;28058;46.344;17.786;2023-02-18T10:05:12;118336.50;;;-144.97;91.79
42415;BME280;28058;46.344;17.786;2023-02-18T10:07:40;118336.50;;;-144.97;90.95
42415;BME280;28058;46.344;17.786;2023-02-18T10:10:22;118336.50;;;-144.97;90.11
42415;BME280;28058;46.344;17.786;2023-02-18T10:12:53;118336.50;;;-144.97;89.85
42415;BME280;28058;46.344;17.786;2023-02-18T10:15:21;118336.50;;;-144.97;88.76
42415;BME280;28058;46.344;17.786;2023-02-18T10:17:49;118336.50;;;-144.97;87.91
42415;BME280;28058;46.344;17.786;2023-02-18T10:20:21;118336.50;;;-144.97;87.58
42415;BME280;28058;46.344;17.786;2023-02-18T10:22:49;118336.50;;;-144.97;87.23
42415;BME280;28058;46.344;17.786;2023-02-18T10:25:17;118336.50;;;-144.97;86.90
42415;BME280;28058;46.344;17.786;2023-02-18T10:27:44;118336.50;;;-144.97;85.76
42415;BME280;28058;46.344;17.786;2023-02-18T10:30:46;118336.50;;;-144.97;84.71
42415;BME280;28058;46.344;17.786;2023-02-18T10:35:56;118336.50;;;-144.97;82.57
42415;BME280;28058;46.344;17.786;2023-02-18T10:38:38;118336.50;;;-144.97;81.60
42415;BME280;28058;46.344;17.786;2023-02-18T10:41:13;118336.50;;;-144.97;80.62
42415;BME280;28058;46.344;17.786;2023-02-18T10:51:31;118336.50;;;-144.97;76.66
42415;BME280;28058;46.344;17.786;2023-02-18T10:53:59;118336.50;;;-144.97;75.95
42415;BME280;28058;46.344;17.786;2023-02-18T10:56:40;118336.50;;;-144.97;75.80
42415;BME280;28058;46.344;17.786;2023-02-18T10:59:18;118336.50;;;-144.97;74.37
42415;BME280;28058;46.344;17.786;2023-02-18T11:01:44;118336.50;;;-144.97;74.34
42415;BME280;28058;46.344;17.786;2023-02-18T11:04:14;118336.50;;;-144.97;73.90
42415;BME280;28058;46.344;17.786;2023-02-18T11:06:41;118336.50;;;-144.97;73.74
42415;BME280;28058;46.344;17.786;2023-02-18T11:09:33;118336.50;;;-144.97;71.97
42415;BME280;28058;46.344;17.786;2023-02-18T11:12:10;118336.50;;;-144.97;72.47
42415;BME280;28058;46.344;17.786;2023-02-18T11:14:41;118336.50;;;-144.97;72.27
42415;BME280;28058;46.344;17.786;2023-02-18T11:17:11;118336.50;;;-144.97;73.40
42415;BME280;28058;46.344;17.786;2023-02-18T11:19:41;118336.50;;;-144.97;71.29
42415;BME280;28058;46.344;17.786;2023-02-18T11:22:12;118336.50;;;-144.97;70.40
42415;BME280;28058;46.344;17.786;2023-02-18T11:24:40;118336.50;;;-144.97;69.87
42415;BME280;28058;46.344;17.786;2023-02-18T11:27:37;118336.50;;;-144.97;68.32
42415;BME280;28058;46.344;17.786;2023-02-18T11:30:04;118336.50;;;-144.97;68.05
42415;BME280;28058;46.344;17.786;2023-02-18T11:32:33;118336.50;;;-144.97;67.11
42415;BME280;28058;46.344;17.786;2023-02-18T11:35:02;118336.50;;;-144.97;67.55
42415;BME280;28058;46.344;17.786;2023-02-18T11:37:38;118336.50;;;-144.97;67.78
42415;BME280;28058;46.344;17.786;2023-02-18T11:40:05;118336.50;;;-144.97;67.57
42415;BME280;28058;46.344;17.786;2023-02-18T11:42:32;118336.50;;;-144.97;66.86
42415;BME280;28058;46.344;17.786;2023-02-18T11:44:59;118336.50;;;-144.97;67.48
42415;BME280;28058;46.344;17.786;2023-02-18T11:47:32;118336.50;;;-144.97;67.37
42415;BME280;28058;46.344;17.786;2023-02-18T11:50:00;118336.50;;;-144.97;67.57
42415;BME280;28058;46.344;17.786;2023-02-18T11:52:32;118336.50;;;-144.97;69.20
42415;BME280;28058;46.344;17.786;2023-02-18T11:57:26;118336.50;;;-144.97;69.62
42415;BME280;28058;46.344;17.786;2023-02-18T11:59:53;118336.50;;;-144.97;70.87
42415;BME280;28058;46.344;17.786;2023-02-18T12:02:33;118336.50;;;-144.97;70.27
42415;BME280;28058;46.344;17.786;2023-02-18T12:05:10;118336.50;;;-144.97;71.25
42415;BME280;28058;46.344;17.786;2023-02-18T12:07:46;118336.50;;;-144.97;70.61
42415;BME280;28058;46.344;17.786;2023-02-18T12:10:18;118336.50;;;-144.97;69.81
42415;BME280;28058;46.344;17.786;2023-02-18T12:12:55;118336.50;;;-144.97;70.81
42415;BME280;28058;46.344;17.786;2023-02-18T12:18:30;118336.50;;;-144.97;70.62
42415;BME280;28058;46.344;17.786;2023-02-18T12:21:06;118336.50;;;-144.97;70.31
42415;BME280;28058;46.344;17.786;2023-02-18T12:28:47;118336.50;;;-144.97;72.98
42415;BME280;28058;46.344;17.786;2023-02-18T12:36:30;118336.50;;;-144.97;73.81
42415;BME280;28058;46.344;17.786;2023-02-18T12:46:58;118336.50;;;-144.97;73.28
42415;BME280;28058;46.344;17.786;2023-02-18T12:49:35;118336.50;;;-144.97;73.28
42415;BME280;28058;46.344;17.786;2023-02-18T12:54:56;118336.50;;;-144.97;74.07
42415;BME280;28058;46.344;17.786;2023-02-18T13:02:37;118336.50;;;-144.97;74.70
42415;BME280;28058;46.344;17.786;2023-02-18T13:08:11;118336.50;;;-144.97;75.57
42415;BME280;28058;46.344;17.786;2023-02-18T13:13:12;118336.50;;;-144.97;75.11
42415;BME280;28058;46.344;17.786;2023-02-18T13:15:42;118336.50;;;-144.97;75.43
42415;BME280;28058;46.344;17.786;2023-02-18T13:18:30;118336.50;;;-144.97;75.82
42415;BME280;28058;46.344;17.786;2023-02-18T13:21:00;118336.50;;;-144.97;74.93
42415;BME280;28058;46.344;17.786;2023-02-18T13:23:32;118336.50;;;-144.97;75.35
42415;BME280;28058;46.344;17.786;2023-02-18T13:26:01;118336.50;;;-144.97;75.39
42415;BME280;28058;46.344;17.786;2023-02-18T13:31:31;118336.50;;;-144.97;75.38
42415;BME280;28058;46.344;17.786;2023-02-18T13:36:36;118336.50;;;-144.97;75.91
42415;BME280;28058;46.344;17.786;2023-02-18T13:39:07;118336.50;;;-144.97;76.44
42415;BME280;28058;46.344;17.786;2023-02-18T13:41:38;118336.50;;;-144.97;77.02
42415;BME280;28058;46.344;17.786;2023-02-18T13:46:51;118336.50;;;-144.97;76.85
42415;BME280;28058;46.344;17.786;2023-02-18T13:49:26;118336.50;;;-144.97;76.32
42415;BME280;28058;46.344;17.786;2023-02-18T13:51:57;118336.50;;;-144.97;76.51
42415;BME280;28058;46.344;17.786;2023-02-18T13:54:30;118336.50;;;-144.97;76.36
42415;BME280;28058;46.344;17.786;2023-02-18T13:56:59;118336.50;;;-144.97;76.08
42415;BME280;28058;46.344;17.786;2023-02-18T13:59:44;118336.50;;;-144.97;76.45
42415;BME280;28058;46.344;17.786;2023-02-18T14:07:28;118336.50;;;-144.97;76.43